Time;durP1;ratioP1;P1;durP2;ratioP2;P2;SDS_P1;SDS_P2;PMS_P1;PMS_P2;Temp;Humidity;BMP_temperature;BMP_pressure;BME280_temperature;BME280_humidity;BME280_pressure;Samples;Min_cycle;Max_cycle;Signal;HPM_P1;HPM_P2
2022/05/03 00:00:50;;;;;;;;;;;;;;;27.04;35.24;93907.13;4964149;28;9318;-56
2022/05/03 00:03:40;;;;;;;;;;;;;;;27.01;36.04;93906.19;4967803;28;7061;-56
2022/05/03 00:06:28;;;;;;;;;;;;;;;27.00;35.23;93901.94;4943967;28;8217;-57
2022/05/03 00:09:07;;;;;;;;;;;;;;;26.98;36.05;93901.72;4953201;28;9591;-56
2022/05/03 00:11:42;;;;;;;;;;;;;;;27.01;35.61;93894.41;4954611;28;9275;-57
2022/05/03 00:14:33;;;;;;;;;;;;;;;27.00;35.09;93898.41;4970715;28;9500;-56
2022/05/03 00:17:07;;;;;;;;;;;;;;;27.00;35.29;93896.41;4970462;28;9456;-57
2022/05/03 00:19:44;;;;;;;;;;;;;;;27.00;35.67;93901.94;4955282;28;7021;-57
2022/05/03 00:22:20;;;;;;;;;;;;;;;26.97;35.20;93905.75;4951836;28;8835;-57
2022/05/03 00:24:54;;;;;;;;;;;;;;;26.94;35.52;93895.78;4954627;28;7188;-56
2022/05/03 00:27:39;;;;;;;;;;;;;;;26.94;36.00;93897.78;4970621;28;9461;-56
2022/05/03 00:30:17;;;;;;;;;;;;;;;26.94;35.77;93895.78;4949952;28;9739;-57
2022/05/03 00:32:47;;;;;;;;;;;;;;;26.94;34.80;93895.78;4999762;28;9859;-57
2022/05/03 00:35:16;;;;;;;;;;;;;;;26.92;36.01;93895.56;4992106;28;9732;-57
2022/05/03 00:37:48;;;;;;;;;;;;;;;26.95;35.22;93896.53;4992566;28;8964;-56
2022/05/03 00:40:47;;;;;;;;;;;;;;;26.95;36.26;93902.06;5008722;28;7227;-57
2022/05/03 00:44:02;;;;;;;;;;;;;;;26.94;35.05;93898.53;4944769;28;7564;-56
2022/05/03 00:47:01;;;;;;;;;;;;;;;26.90;35.74;93889.84;4938982;28;9833;-56
2022/05/03 00:49:44;;;;;;;;;;;;;;;26.90;35.60;93887.09;4893185;29;10402;-56
2022/05/03 00:52:35;;;;;;;;;;;;;;;26.89;35.90;93888.34;4891515;29;9155;-56
2022/05/03 00:55:26;;;;;;;;;;;;;;;26.88;35.29;93886.88;4892958;29;9330;-56
2022/05/03 00:58:34;;;;;;;;;;;;;;;26.88;35.16;93886.88;4894346;29;7250;-56
2022/05/03 01:01:46;;;;;;;;;;;;;;;26.84;36.03;93889.19;4879603;29;9068;-56
2022/05/03 01:04:31;;;;;;;;;;;;;;;26.84;36.18;93886.44;4894584;29;7060;-56
2022/05/03 01:07:22;;;;;;;;;;;;;;;26.84;36.19;93889.94;4897054;29;8878;-56
2022/05/03 01:10:41;;;;;;;;;;;;;;;26.84;35.24;93892.69;4894553;29;7248;-56
2022/05/03 01:13:10;;;;;;;;;;;;;;;26.83;36.13;93894.00;4838756;29;9152;-56
2022/05/03 01:15:46;;;;;;;;;;;;;;;26.82;35.85;93891.75;4854827;29;9114;-56
2022/05/03 01:18:43;;;;;;;;;;;;;;;26.80;35.33;93889.50;4839345;29;7025;-56
2022/05/03 01:21:18;;;;;;;;;;;;;;;26.80;35.74;93897.78;4895793;29;7353;-56
2022/05/03 01:24:22;;;;;;;;;;;;;;;26.82;34.73;93886.97;4897520;29;7827;-56
2022/05/03 01:27:05;;;;;;;;;;;;;;;26.80;35.16;93881.25;4923448;28;7261;-56
2022/05/03 01:29:35;;;;;;;;;;;;;;;26.78;35.05;93881.03;4942097;28;7652;-56
2022/05/03 01:32:07;;;;;;;;;;;;;;;26.76;34.76;93880.81;4941240;28;7018;-57
2022/05/03 01:34:34;;;;;;;;;;;;;;;26.76;35.27;93888.34;4928929;28;9497;-56
2022/05/03 01:37:00;;;;;;;;;;;;;;;26.76;35.61;93886.34;4946426;28;9085;-56
2022/05/03 01:39:50;;;;;;;;;;;;;;;26.75;35.13;93889.63;4943310;28;7254;-57
2022/05/03 01:42:37;;;;;;;;;;;;;;;26.73;35.37;93889.44;4946517;28;7266;-56
2022/05/03 01:45:07;;;;;;;;;;;;;;;26.73;35.44;93889.44;4942479;28;8988;-56
2022/05/03 01:47:59;;;;;;;;;;;;;;;26.72;35.50;93894.16;4977508;28;9102;-56
2022/05/03 01:50:45;;;;;;;;;;;;;;;26.72;35.34;93898.94;4987448;28;9305;-56
2022/05/03 01:53:41;;;;;;;;;;;;;;;26.74;34.81;93890.91;4994014;28;9118;-56
2022/05/03 01:56:35;;;;;;;;;;;;;;;26.71;34.98;93892.66;5002147;28;7582;-56
2022/05/03 01:59:13;;;;;;;;;;;;;;;26.73;34.66;93889.44;4983198;28;7268;-56
2022/05/03 02:01:42;;;;;;;;;;;;;;;26.72;35.31;93885.13;4997296;28;7421;-56
2022/05/03 02:04:39;;;;;;;;;;;;;;;26.69;34.72;93886.94;4988243;28;9336;-56
2022/05/03 02:07:18;;;;;;;;;;;;;;;26.70;34.55;93885.69;4996874;28;7060;-57
2022/05/03 02:10:13;;;;;;;;;;;;;;;26.69;34.23;93888.94;4988335;28;9152;-56
2022/05/03 02:12:51;;;;;;;;;;;;;;;26.66;34.74;93892.78;4981946;28;8802;-56
2022/05/03 02:15:43;;;;;;;;;;;;;;;26.62;34.98;93884.09;5002512;28;8705;-57
2022/05/03 02:18:18;;;;;;;;;;;;;;;26.65;35.02;93883.00;4981340;28;7656;-56
2022/05/03 02:20:55;;;;;;;;;;;;;;;26.66;34.40;93887.25;4986379;28;7221;-56
2022/05/03 02:23:39;;;;;;;;;;;;;;;26.65;34.40;93892.03;4982987;28;7499;-56
2022/05/03 02:26:33;;;;;;;;;;;;;;;26.62;35.15;93889.59;4984563;28;7495;-56
2022/05/03 02:29:43;;;;;;;;;;;;;;;26.57;34.60;93899.47;4988019;28;7642;-56
2022/05/03 02:32:12;;;;;;;;;;;;;;;26.59;35.01;93893.41;4940273;29;8220;-56
2022/05/03 02:34:53;;;;;;;;;;;;;;;26.57;34.69;93898.72;4929733;29;7268;-56
2022/05/03 02:37:24;;;;;;;;;;;;;;;26.58;35.13;93894.66;4927865;29;6994;-56
2022/05/03 02:40:03;;;;;;;;;;;;;;;26.58;34.98;93884.38;4952815;28;9269;-56
2022/05/03 02:42:31;;;;;;;;;;;;;;;26.55;35.08;93888.22;4934357;28;8801;-56
2022/05/03 02:45:00;;;;;;;;;;;;;;;26.55;34.84;93890.97;4939914;28;9401;-56
2022/05/03 02:47:45;;;;;;;;;;;;;;;26.54;35.07;93889.47;4931708;28;9128;-56
2022/05/03 02:50:29;;;;;;;;;;;;;;;26.56;34.75;93892.44;4923528;29;7217;-57
2022/05/03 02:53:08;;;;;;;;;;;;;;;26.55;34.11;93881.94;4935944;28;7087;-57
2022/05/03 02:55:43;;;;;;;;;;;;;;;26.54;35.05;93889.47;4956802;28;9416;-57
2022/05/03 02:58:38;;;;;;;;;;;;;;;26.52;35.26;93889.25;4942220;28;7935;-57
2022/05/03 03:04:44;;;;;;;;;;;;;;;26.48;35.14;93877.06;4952402;28;9336;-57
2022/05/03 03:07:24;;;;;;;;;;;;;;;26.47;34.49;93884.59;5006751;28;8693;-57
2022/05/03 03:10:04;;;;;;;;;;;;;;;26.48;35.33;93877.06;4991900;28;7230;-57
2022/05/03 03:12:47;;;;;;;;;;;;;;;26.46;34.83;93871.31;4988413;28;8348;-57
2022/05/03 03:15:18;;;;;;;;;;;;;;;26.46;34.58;93876.84;4991406;28;7203;-57
2022/05/03 03:17:50;;;;;;;;;;;;;;;26.45;34.82;93887.13;4995422;28;9330;-57
2022/05/03 03:20:38;;;;;;;;;;;;;;;26.43;34.98;93881.41;4993524;28;9387;-57
2022/05/03 03:23:06;;;;;;;;;;;;;;;26.44;35.21;93879.38;4990749;28;9301;-57
2022/05/03 03:25:34;;;;;;;;;;;;;;;26.44;34.82;93884.91;4993089;28;9386;-57
2022/05/03 03:28:08;;;;;;;;;;;;;;;26.38;35.57;93887.03;4992090;28;7866;-57
2022/05/03 03:30:37;;;;;;;;;;;;;;;26.40;34.94;93896.25;4989654;28;9053;-57
2022/05/03 03:33:13;;;;;;;;;;;;;;;26.40;35.08;93895.50;4989183;28;9764;-57
2022/05/03 03:35:48;;;;;;;;;;;;;;;26.38;35.49;93885.00;4993060;28;9108;-57
2022/05/03 03:38:38;;;;;;;;;;;;;;;26.38;35.25;93889.78;4986537;28;7333;-57
2022/05/03 03:41:07;;;;;;;;;;;;;;;26.37;35.08;93886.28;4994312;28;7960;-57
2022/05/03 03:43:42;;;;;;;;;;;;;;;26.37;34.87;93885.53;5010110;28;8779;-57
2022/05/03 03:46:14;;;;;;;;;;;;;;;26.34;35.06;93887.31;5009180;28;7658;-57
2022/05/03 03:48:43;;;;;;;;;;;;;;;26.36;35.46;93892.31;4994725;28;8433;-57
2022/05/03 03:51:12;;;;;;;;;;;;;;;26.35;35.30;93894.34;4986923;28;6986;-57
2022/05/03 03:53:39;;;;;;;;;;;;;;;26.34;35.80;93892.13;4999440;28;7071;-57
2022/05/03 03:56:07;;;;;;;;;;;;;;;26.35;35.18;93890.81;4989802;28;7066;-57
2022/05/03 03:58:34;;;;;;;;;;;;;;;26.37;35.33;93891.03;4993617;28;9514;-57
2022/05/03 04:01:26;;;;;;;;;;;;;;;26.32;34.88;93889.13;4992914;28;7243;-57
2022/05/03 04:03:54;;;;;;;;;;;;;;;26.31;35.45;93887.63;4945441;28;9394;-57
2022/05/03 04:06:21;;;;;;;;;;;;;;;26.29;35.85;93884.66;4963156;28;9778;-57
2022/05/03 04:08:57;;;;;;;;;;;;;;;26.29;35.32;93892.94;4963299;28;7062;-57
2022/05/03 04:11:23;;;;;;;;;;;;;;;26.28;35.37;93891.44;4957208;28;7274;-57
2022/05/03 04:13:52;;;;;;;;;;;;;;;26.25;35.80;93884.25;4959779;28;7277;-57
2022/05/03 04:16:18;;;;;;;;;;;;;;;26.29;35.04;93890.19;4967795;28;7115;-57
2022/05/03 04:18:45;;;;;;;;;;;;;;;26.32;35.53;93889.88;4967759;28;7974;-57
2022/05/03 04:21:24;;;;;;;;;;;;;;;26.34;34.92;93892.84;4961873;28;7877;-57
2022/05/03 04:24:00;;;;;;;;;;;;;;;26.36;35.34;93897.84;4974367;28;7354;-56
2022/05/03 04:26:30;;;;;;;;;;;;;;;26.39;34.85;93894.00;4971337;28;7066;-56
2022/05/03 04:29:00;;;;;;;;;;;;;;;26.37;35.04;93885.53;4979513;28;9730;-57
2022/05/03 04:31:30;;;;;;;;;;;;;;;26.43;35.33;93902.72;4946781;28;7513;-57
2022/05/03 04:34:05;;;;;;;;;;;;;;;26.44;35.46;93906.97;4966163;28;7421;-57
2022/05/03 04:36:33;;;;;;;;;;;;;;;26.46;35.15;93909.94;4962907;28;8878;-57
2022/05/03 04:39:09;;;;;;;;;;;;;;;26.45;34.73;93903.66;4970412;28;9173;-57
2022/05/03 04:41:35;;;;;;;;;;;;;;;26.47;35.09;93914.19;4999106;28;8828;-57
2022/05/03 04:44:01;;;;;;;;;;;;;;;26.40;34.40;93895.50;4982440;28;7254;-57
2022/05/03 04:46:29;;;;;;;;;;;;;;;26.45;34.51;93911.19;5004002;28;6982;-57
2022/05/03 04:48:55;;;;;;;;;;;;;;;26.40;33.79;93901.03;4986752;28;9449;-57
2022/05/03 04:51:24;;;;;;;;;;;;;;;26.44;34.01;93906.97;4987425;28;7009;-57
2022/05/03 04:53:50;;;;;;;;;;;;;;;26.37;33.97;93919.38;4986412;28;7284;-58
2022/05/03 04:56:28;;;;;;;;;;;;;;;26.35;33.48;93921.16;4982890;28;7212;-57
2022/05/03 04:58:55;;;;;;;;;;;;;;;26.35;33.79;93921.91;4986003;28;9449;-56
2022/05/03 05:01:23;;;;;;;;;;;;;;;26.37;33.93;93918.63;4978412;28;7015;-56
2022/05/03 05:03:49;;;;;;;;;;;;;;;26.37;33.73;93922.13;4986921;28;9035;-56
2022/05/03 05:06:20;;;;;;;;;;;;;;;26.33;33.46;93918.94;4981575;28;7522;-56
2022/05/03 05:08:47;;;;;;;;;;;;;;;26.27;34.28;93926.56;5002270;28;7315;-57
2022/05/03 05:11:14;;;;;;;;;;;;;;;26.26;33.82;93932.56;4987890;28;9221;-56
2022/05/03 05:13:41;;;;;;;;;;;;;;;26.27;33.65;93926.56;4986748;28;9572;-56
2022/05/03 05:16:08;;;;;;;;;;;;;;;26.25;34.02;93928.34;4983704;28;7224;-57
2022/05/03 05:18:34;;;;;;;;;;;;;;;26.27;34.16;93925.81;4986104;28;8761;-57
2022/05/03 05:21:04;;;;;;;;;;;;;;;26.23;33.98;93920.59;4986256;28;7128;-56
2022/05/03 05:23:30;;;;;;;;;;;;;;;26.23;34.61;93930.88;4986143;28;9111;-57
2022/05/03 05:25:57;;;;;;;;;;;;;;;26.25;33.90;93937.38;4982178;28;9123;-57
2022/05/03 05:28:24;;;;;;;;;;;;;;;26.26;34.75;93927.06;5001230;28;8732;-57
2022/05/03 05:30:53;;;;;;;;;;;;;;;26.25;34.69;93931.09;4988205;28;7227;-57
2022/05/03 05:33:21;;;;;;;;;;;;;;;26.28;34.59;93941.81;4988452;28;9784;-57
2022/05/03 05:35:48;;;;;;;;;;;;;;;26.23;34.30;93941.91;4992800;28;6920;-58
2022/05/03 05:38:16;;;;;;;;;;;;;;;26.20;34.22;93934.69;4989340;28;7313;-58
2022/05/03 05:40:49;;;;;;;;;;;;;;;26.14;34.84;93935.50;5004335;28;7143;-58
2022/05/03 05:43:19;;;;;;;;;;;;;;;26.11;34.96;93947.59;4986024;28;7396;-58
2022/05/03 05:46:00;;;;;;;;;;;;;;;26.12;34.60;93953.88;4986599;28;7226;-59
2022/05/03 05:48:45;;;;;;;;;;;;;;;26.12;35.04;93946.31;4991964;28;7406;-59
2022/05/03 05:51:11;;;;;;;;;;;;;;;26.16;34.49;93949.50;4991142;28;8847;-58
2022/05/03 05:53:39;;;;;;;;;;;;;;;26.20;35.36;93959.50;5004230;28;7692;-58
2022/05/03 05:56:07;;;;;;;;;;;;;;;26.18;34.84;93954.53;4985100;28;9499;-58
2022/05/03 05:58:33;;;;;;;;;;;;;;;26.22;35.17;93951.44;4993227;28;9181;-57
2022/05/03 06:01:08;;;;;;;;;;;;;;;26.25;34.99;93953.16;4978703;28;8956;-58
2022/05/03 06:03:42;;;;;;;;;;;;;;;26.24;35.18;93957.94;4991072;28;8829;-57
2022/05/03 06:06:22;;;;;;;;;;;;;;;26.26;34.80;93951.88;4977826;28;9092;-57
2022/05/03 06:08:56;;;;;;;;;;;;;;;26.28;35.09;93957.59;4987676;28;8961;-56
2022/05/03 06:11:23;;;;;;;;;;;;;;;26.29;35.02;93956.34;4989316;28;7501;-58
2022/05/03 06:13:51;;;;;;;;;;;;;;;26.30;35.12;93963.34;5002873;28;9037;-57
2022/05/03 06:16:19;;;;;;;;;;;;;;;26.31;34.84;93960.06;4985516;28;7224;-57
2022/05/03 06:18:56;;;;;;;;;;;;;;;26.33;35.17;93962.28;4991233;28;7457;-57
2022/05/03 06:21:24;;;;;;;;;;;;;;;26.32;35.42;93955.31;5003747;28;7047;-57
2022/05/03 06:23:50;;;;;;;;;;;;;;;26.30;35.24;93957.81;4989533;28;7906;-57
2022/05/03 06:26:23;;;;;;;;;;;;;;;26.35;35.03;93966.03;4994607;28;7030;-57
2022/05/03 06:28:56;;;;;;;;;;;;;;;26.35;34.90;93959.75;4995615;28;9524;-57
2022/05/03 06:31:26;;;;;;;;;;;;;;;26.36;35.16;93964.00;5010321;28;7836;-58
2022/05/03 06:33:53;;;;;;;;;;;;;;;26.37;35.29;93971.00;4993200;28;7573;-58
2022/05/03 06:36:20;;;;;;;;;;;;;;;26.37;35.27;93968.25;5007458;28;9721;-57
2022/05/03 06:38:52;;;;;;;;;;;;;;;26.38;34.98;93964.22;4989103;28;8899;-57
2022/05/03 06:41:28;;;;;;;;;;;;;;;26.39;34.71;93968.47;5004839;28;9444;-57
2022/05/03 06:43:58;;;;;;;;;;;;;;;26.40;35.07;93967.19;5000789;28;9349;-57
2022/05/03 06:46:27;;;;;;;;;;;;;;;26.41;35.70;93963.16;4988387;28;7228;-57
2022/05/03 06:48:59;;;;;;;;;;;;;;;26.42;35.10;93970.94;4992036;28;7247;-58
2022/05/03 06:51:25;;;;;;;;;;;;;;;26.43;34.69;93972.41;4989456;28;7729;-57
2022/05/03 06:53:52;;;;;;;;;;;;;;;26.40;34.68;93973.47;4989008;28;7451;-56
2022/05/03 06:56:21;;;;;;;;;;;;;;;26.43;34.64;93974.41;4990574;28;8792;-57
2022/05/03 06:58:56;;;;;;;;;;;;;;;26.46;33.98;93981.63;4999918;28;9109;-57
2022/05/03 07:01:28;;;;;;;;;;;;;;;26.48;33.91;93981.84;4983667;28;7311;-57
2022/05/03 07:03:54;;;;;;;;;;;;;;;26.54;34.39;93983.25;4992929;28;9136;-57
2022/05/03 07:06:32;;;;;;;;;;;;;;;26.61;34.57;93984.66;4999049;28;10068;-57
2022/05/03 07:09:00;;;;;;;;;;;;;;;26.65;34.11;93985.81;4992209;28;7310;-57
2022/05/03 07:11:31;;;;;;;;;;;;;;;26.71;33.62;93982.97;4987427;28;6860;-58
2022/05/03 07:14:06;;;;;;;;;;;;;;;26.76;33.77;93990.44;4986934;28;7173;-58
2022/05/03 07:16:33;;;;;;;;;;;;;;;26.79;33.72;93987.38;4985412;28;7270;-57
2022/05/03 07:24:37;;;;;;;;;;;;;;;26.91;34.04;93996.19;4989603;28;7082;-58
2022/05/03 07:27:08;;;;;;;;;;;;;;;26.94;33.64;94003.41;4986289;28;6856;-57
2022/05/03 07:29:35;;;;;;;;;;;;;;;26.96;34.33;93998.13;4989924;28;9470;-57
2022/05/03 07:32:16;;;;;;;;;;;;;;;26.98;34.41;93992.81;4986692;28;9073;-57
2022/05/03 07:34:42;;;;;;;;;;;;;;;26.99;33.49;93994.28;5003130;28;7532;-57
2022/05/03 07:37:10;;;;;;;;;;;;;;;27.01;33.91;93991.75;5001046;28;9260;-57
2022/05/03 07:39:37;;;;;;;;;;;;;;;27.02;34.63;93993.22;4992368;28;7253;-57
2022/05/03 07:42:06;;;;;;;;;;;;;;;27.03;34.32;93997.50;4991723;28;10005;-58
2022/05/03 07:44:32;;;;;;;;;;;;;;;27.06;34.20;94003.94;5004847;28;9197;-57
2022/05/03 07:46:58;;;;;;;;;;;;;;;27.07;34.38;94008.94;4989014;28;9049;-56
2022/05/03 07:49:24;;;;;;;;;;;;;;;27.08;33.73;94007.66;4981869;28;7225;-57
2022/05/03 07:51:50;;;;;;;;;;;;;;;27.10;34.01;94005.13;4995834;28;7537;-57
2022/05/03 07:54:16;;;;;;;;;;;;;;;27.10;34.56;94009.91;5003755;28;7986;-57
2022/05/03 07:56:43;;;;;;;;;;;;;;;27.10;33.74;94009.91;4990521;28;8978;-57
2022/05/03 07:59:10;;;;;;;;;;;;;;;27.10;34.65;94013.41;4990188;28;8809;-58
2022/05/03 08:01:40;;;;;;;;;;;;;;;27.10;33.98;94018.19;4987310;28;6993;-57
2022/05/03 08:04:07;;;;;;;;;;;;;;;27.08;33.91;94015.94;4981746;28;7477;-57
2022/05/03 08:06:35;;;;;;;;;;;;;;;27.10;34.70;94021.69;5005049;28;9020;-57
2022/05/03 08:09:03;;;;;;;;;;;;;;;27.11;34.21;94023.19;4987804;28;7209;-57
2022/05/03 08:11:32;;;;;;;;;;;;;;;27.11;34.41;94020.41;4975747;28;9275;-57
2022/05/03 08:14:00;;;;;;;;;;;;;;;27.10;34.27;94021.69;4985558;28;7241;-57
2022/05/03 08:16:27;;;;;;;;;;;;;;;27.11;34.47;94022.44;5000467;28;7486;-57
2022/05/03 08:18:54;;;;;;;;;;;;;;;27.11;34.47;94027.94;4997860;28;7852;-57
2022/05/03 08:21:20;;;;;;;;;;;;;;;27.09;34.67;94030.50;5001630;28;7552;-57
2022/05/03 08:23:46;;;;;;;;;;;;;;;27.10;34.85;94032.72;4987822;28;9186;-57
2022/05/03 08:26:15;;;;;;;;;;;;;;;27.08;34.36;94037.31;4985567;28;7022;-58
2022/05/03 08:28:42;;;;;;;;;;;;;;;27.07;34.33;94031.03;4984053;28;7563;-57
2022/05/03 08:31:09;;;;;;;;;;;;;;;27.07;34.07;94031.03;4980599;28;7448;-57
2022/05/03 08:33:39;;;;;;;;;;;;;;;27.02;34.29;94026.34;4987792;28;7323;-58
2022/05/03 08:36:06;;;;;;;;;;;;;;;27.06;34.50;94032.28;4985000;28;9089;-58
2022/05/03 08:44:02;;;;;;;;;;;;;;;27.04;35.16;94037.59;4981138;28;7006;-57
2022/05/03 08:46:31;;;;;;;;;;;;;;;26.97;34.36;94032.69;4987895;28;9038;-58
2022/05/03 08:49:03;;;;;;;;;;;;;;;27.03;34.39;94041.66;4985533;28;8995;-57
2022/05/03 08:51:34;;;;;;;;;;;;;;;27.03;34.92;94038.16;4989187;28;6995;-57
2022/05/03 08:54:01;;;;;;;;;;;;;;;26.98;35.34;94034.19;4982568;28;7185;-58
2022/05/03 08:56:28;;;;;;;;;;;;;;;27.00;35.53;94042.69;4980398;28;9008;-58
2022/05/03 08:58:55;;;;;;;;;;;;;;;26.98;35.32;94041.72;4985634;28;7390;-58
2022/05/03 09:01:21;;;;;;;;;;;;;;;26.98;35.17;94039.72;4987356;28;7388;-58
2022/05/03 09:03:48;;;;;;;;;;;;;;;26.97;34.88;94037.50;4987333;28;9288;-58
2022/05/03 09:06:14;;;;;;;;;;;;;;;26.95;34.96;94032.50;4986601;28;7221;-57
2022/05/03 09:08:40;;;;;;;;;;;;;;;26.95;34.67;94038.00;4979552;28;7296;-58
2022/05/03 09:11:19;;;;;;;;;;;;;;;26.95;35.06;94040.06;4987916;28;7267;-57
2022/05/03 09:13:46;;;;;;;;;;;;;;;26.94;35.54;94042.06;5000623;28;9110;-58
2022/05/03 09:16:16;;;;;;;;;;;;;;;26.94;35.20;94047.56;4988227;28;7195;-57
2022/05/03 09:18:44;;;;;;;;;;;;;;;26.95;35.63;94043.53;4988100;28;7334;-57
2022/05/03 09:24:15;;;;;;;;;;;;;;;26.94;35.22;94042.06;4977374;28;9131;-57
2022/05/03 09:26:43;;;;;;;;;;;;;;;26.93;35.80;94043.31;4987145;28;9306;-57
2022/05/03 09:29:14;;;;;;;;;;;;;;;26.92;35.60;94044.59;4993194;28;9216;-60
2022/05/03 09:31:47;;;;;;;;;;;;;;;26.92;35.02;94039.81;4984171;28;9067;-57
2022/05/03 09:34:29;;;;;;;;;;;;;;;26.91;35.11;94040.34;4986184;28;7235;-57
2022/05/03 09:37:02;;;;;;;;;;;;;;;26.93;35.15;94040.56;4985799;28;7287;-58
2022/05/03 09:39:37;;;;;;;;;;;;;;;26.92;35.44;94034.28;4980776;28;8804;-58
2022/05/03 09:42:06;;;;;;;;;;;;;;;26.92;35.46;94032.81;4997159;28;7245;-58
2022/05/03 09:44:36;;;;;;;;;;;;;;;26.92;35.85;94032.81;4993757;28;9255;-58
2022/05/03 09:47:16;;;;;;;;;;;;;;;26.88;35.33;94028.34;5001658;28;7405;-58
2022/05/03 09:49:45;;;;;;;;;;;;;;;26.90;35.66;94034.06;4981733;28;7451;-58
2022/05/03 09:52:27;;;;;;;;;;;;;;;26.90;35.47;94036.09;4988979;28;7060;-58
2022/05/03 09:54:59;;;;;;;;;;;;;;;26.90;35.09;94034.06;4986935;28;7587;-57
2022/05/03 09:57:27;;;;;;;;;;;;;;;26.91;35.74;94026.53;4986260;28;7191;-57
2022/05/03 09:59:55;;;;;;;;;;;;;;;26.92;36.15;94027.28;4991117;28;7922;-57
2022/05/03 10:02:27;;;;;;;;;;;;;;;26.89;35.46;94029.84;4984735;28;9093;-57
2022/05/03 10:04:57;;;;;;;;;;;;;;;26.89;35.46;94021.56;5005969;28;7907;-58
2022/05/03 10:07:29;;;;;;;;;;;;;;;26.89;35.98;94018.81;4993764;28;9026;-58
2022/05/03 10:09:56;;;;;;;;;;;;;;;26.86;35.40;94016.38;4998016;28;7565;-58
2022/05/03 10:12:26;;;;;;;;;;;;;;;26.89;36.31;94016.03;4991332;28;9253;-56
2022/05/03 10:14:52;;;;;;;;;;;;;;;26.88;35.26;94016.56;4991340;28;7127;-56
2022/05/03 10:20:51;;;;;;;;;;;;;;;26.89;36.20;94012.53;4986476;28;8947;-58
2022/05/03 10:23:24;;;;;;;;;;;;;;;26.90;36.35;94011.28;5003418;28;9548;-58
2022/05/03 10:26:11;;;;;;;;;;;;;;;26.87;35.75;94001.28;5001384;28;9084;-58
2022/05/03 10:29:07;;;;;;;;;;;;;;;26.87;35.42;94001.28;4978541;28;9341;-58
2022/05/03 10:31:56;;;;;;;;;;;;;;;26.87;35.38;94009.56;4985109;28;8155;-60
2022/05/03 10:34:44;;;;;;;;;;;;;;;26.88;35.39;94008.31;4979904;28;8661;-58
2022/05/03 10:37:18;;;;;;;;;;;;;;;26.86;36.18;94002.56;4998980;28;6864;-57
2022/05/03 10:40:10;;;;;;;;;;;;;;;26.88;36.23;94002.78;4987878;28;7364;-57
2022/05/03 10:42:41;;;;;;;;;;;;;;;26.89;36.30;93998.72;4956047;28;6920;-57
2022/05/03 10:45:12;;;;;;;;;;;;;;;26.90;35.90;93989.19;4991147;28;7007;-58
2022/05/03 10:47:54;;;;;;;;;;;;;;;26.87;35.87;93984.72;4983855;28;7020;-58
2022/05/03 10:50:32;;;;;;;;;;;;;;;26.90;35.66;93986.44;4986995;28;9062;-58
2022/05/03 10:53:01;;;;;;;;;;;;;;;26.93;36.45;93990.88;4989229;28;7069;-58
2022/05/03 10:56:05;;;;;;;;;;;;;;;26.88;35.49;93977.94;4988970;28;9637;-57
2022/05/03 10:58:34;;;;;;;;;;;;;;;26.87;35.83;93979.19;4976836;28;6864;-57
2022/05/03 11:01:17;;;;;;;;;;;;;;;26.88;36.49;93977.94;4996638;28;7533;-57
2022/05/03 11:03:54;;;;;;;;;;;;;;;26.87;36.53;93979.94;4985132;28;7005;-57
2022/05/03 11:06:27;;;;;;;;;;;;;;;26.87;35.78;93977.19;5003226;28;6864;-57
2022/05/03 11:11:46;;;;;;;;;;;;;;;26.88;36.45;93973.16;4986476;28;9593;-58
2022/05/03 11:14:24;;;;;;;;;;;;;;;26.88;36.78;93969.66;4992950;28;7301;-58
2022/05/03 11:17:08;;;;;;;;;;;;;;;26.88;36.68;93961.38;4988978;28;6857;-58
2022/05/03 11:19:49;;;;;;;;;;;;;;;26.83;36.71;93960.22;4994304;28;9162;-57
2022/05/03 11:22:37;;;;;;;;;;;;;;;26.89;36.69;93958.09;4994992;28;7222;-57
2022/05/03 11:25:12;;;;;;;;;;;;;;;26.91;36.09;93960.31;4995699;28;7258;-58
2022/05/03 11:27:44;;;;;;;;;;;;;;;26.87;36.96;93954.38;4986289;28;7978;-58
2022/05/03 11:30:11;;;;;;;;;;;;;;;26.90;36.38;93951.28;4991613;28;7171;-57
2022/05/03 11:32:38;;;;;;;;;;;;;;;26.90;36.44;93958.84;4988059;28;7050;-58
2022/05/03 11:35:08;;;;;;;;;;;;;;;26.88;36.40;93961.38;4981535;28;7163;-57
2022/05/03 11:37:43;;;;;;;;;;;;;;;26.86;36.41;93953.63;4993470;28;8619;-57
2022/05/03 11:40:10;;;;;;;;;;;;;;;26.87;36.13;93954.38;5004890;28;9279;-58
2022/05/03 11:42:44;;;;;;;;;;;;;;;26.86;36.99;93961.91;5004602;28;7299;-57
2022/05/03 11:45:14;;;;;;;;;;;;;;;26.84;36.18;93958.16;5006716;28;8339;-58
2022/05/03 11:47:51;;;;;;;;;;;;;;;26.84;35.97;93955.41;4991093;28;7341;-58
2022/05/03 11:56:05;;;;;;;;;;;;;;;26.84;36.57;93956.16;4980249;28;9535;-58
2022/05/03 11:58:35;;;;;;;;;;;;;;;26.85;37.05;93954.16;5000910;28;9511;-58
2022/05/03 12:01:10;;;;;;;;;;;;;;;26.83;36.45;93948.44;5003853;28;9232;-58
2022/05/03 12:03:53;;;;;;;;;;;;;;;26.83;36.39;93953.94;4983945;28;9016;-58
2022/05/03 12:06:21;;;;;;;;;;;;;;;26.83;36.56;93948.44;4998132;28;7427;-56
2022/05/03 12:08:50;;;;;;;;;;;;;;;26.83;36.94;93949.19;4989034;28;7491;-56
2022/05/03 12:12:42;;;;;;;;;;;;;;;26.83;36.55;93948.44;4987732;28;7251;-56
2022/05/03 12:14:59;;;;;;;;;;;;;;;26.83;36.74;93948.44;4987247;28;7483;-56
2022/05/03 12:17:27;;;;;;;;;;;;;;;26.81;37.34;93946.19;4950379;28;7512;-58
2022/05/03 12:19:59;;;;;;;;;;;;;;;26.82;37.37;93952.44;4933803;28;9077;-58
2022/05/03 12:22:26;;;;;;;;;;;;;;;26.85;37.35;93951.41;4949525;28;7179;-58
2022/05/03 12:24:52;;;;;;;;;;;;;;;26.87;37.31;93943.31;4945494;28;7086;-57
2022/05/03 12:27:20;;;;;;;;;;;;;;;26.85;36.37;93946.63;4934872;28;7317;-58
2022/05/03 12:29:50;;;;;;;;;;;;;;;26.86;37.41;93941.84;4945496;28;7962;-57
2022/05/03 12:32:18;;;;;;;;;;;;;;;26.86;36.47;93936.34;4942065;28;8612;-57
2022/05/03 12:34:58;;;;;;;;;;;;;;;26.86;37.03;93936.34;4941427;28;8945;-57
2022/05/03 12:37:25;;;;;;;;;;;;;;;26.86;36.86;93941.84;4932212;28;7434;-57
2022/05/03 12:39:51;;;;;;;;;;;;;;;26.85;36.55;93943.13;4937519;28;9198;-56
2022/05/03 12:42:17;;;;;;;;;;;;;;;26.86;36.17;93944.63;4930913;28;9148;-56
2022/05/03 12:44:52;;;;;;;;;;;;;;;26.89;37.23;93949.06;4938436;28;9448;-58
2022/05/03 12:47:19;;;;;;;;;;;;;;;26.86;36.40;93936.34;4935023;28;9092;-58
2022/05/03 12:49:48;;;;;;;;;;;;;;;26.92;36.55;93943.22;4928756;28;7234;-58
2022/05/03 12:52:14;;;;;;;;;;;;;;;26.87;36.43;93937.81;4971190;28;9622;-58
2022/05/03 12:54:44;;;;;;;;;;;;;;;26.90;35.89;93945.03;4988163;28;8139;-58
2022/05/03 13:00:03;;;;;;;;;;;;;;;26.89;35.74;93938.03;4986110;28;8748;-58
2022/05/03 13:02:29;;;;;;;;;;;;;;;26.89;36.29;93947.06;4997594;23;9451;-68
2022/05/03 13:04:57;;;;;;;;;;;;;;;26.91;36.16;93941.00;5002210;28;9067;-68
2022/05/03 13:07:24;;;;;;;;;;;;;;;26.89;36.16;93930.50;5007537;28;8792;-67
2022/05/03 13:09:50;;;;;;;;;;;;;;;26.90;36.00;93937.47;5012347;28;9184;-68
2022/05/03 13:12:18;;;;;;;;;;;;;;;26.89;35.45;93932.50;5014940;28;9172;-68
2022/05/03 13:14:44;;;;;;;;;;;;;;;26.93;35.33;93927.41;5005780;28;7231;-68
2022/05/03 13:17:10;;;;;;;;;;;;;;;26.92;35.82;93934.22;5004351;28;7237;-67
2022/05/03 13:19:36;;;;;;;;;;;;;;;26.91;35.41;93921.69;5002277;28;7237;-68
2022/05/03 13:22:04;;;;;;;;;;;;;;;26.90;35.39;93922.97;5005205;28;7231;-69
2022/05/03 13:24:30;;;;;;;;;;;;;;;26.92;35.34;93919.66;5001214;28;9052;-68
2022/05/03 13:26:58;;;;;;;;;;;;;;;26.95;35.88;93913.09;5002025;28;7316;-69
2022/05/03 13:29:24;;;;;;;;;;;;;;;26.92;35.52;93908.63;5008515;28;9445;-68
2022/05/03 13:31:53;;;;;;;;;;;;;;;26.97;35.32;93913.31;5006179;28;9072;-68
2022/05/03 13:34:19;;;;;;;;;;;;;;;26.98;36.02;93915.53;5007568;28;9746;-68
2022/05/03 13:42:23;;;;;;;;;;;;;;;27.01;35.16;93900.66;5004874;28;7156;-68
2022/05/03 13:44:57;;;;;;;;;;;;;;;27.00;36.26;93896.41;5021394;28;7248;-68
2022/05/03 13:47:26;;;;;;;;;;;;;;;27.02;35.83;93901.38;5008001;28;7230;-68
2022/05/03 13:49:52;;;;;;;;;;;;;;;27.02;35.54;93901.38;5006078;28;7179;-68
2022/05/03 13:52:19;;;;;;;;;;;;;;;27.03;35.66;93905.66;5006980;28;7540;-69
2022/05/03 13:55:01;;;;;;;;;;;;;;;27.02;35.96;93893.84;5026210;28;9568;-69
2022/05/03 13:57:31;;;;;;;;;;;;;;;27.01;35.30;93895.16;5021392;28;6993;-69
2022/05/03 13:59:59;;;;;;;;;;;;;;;27.04;35.60;93891.31;5016660;28;9127;-69
2022/05/03 14:02:25;;;;;;;;;;;;;;;27.04;36.09;93890.56;5004877;28;9460;-69
2022/05/03 14:04:51;;;;;;;;;;;;;;;27.02;35.67;93893.84;5011947;28;7223;-69
2022/05/03 14:07:18;;;;;;;;;;;;;;;27.02;35.62;93896.63;5009788;28;7732;-71
2022/05/03 14:09:44;;;;;;;;;;;;;;;27.03;36.23;93895.34;5006028;28;9649;-69